METAR - Ísland

Uppfært síðast 20.03.2019 - kl. 14:24

SIGMET síðustu 6 klst.

BIRD SIGMET A03 VALID 201400/201700 BIRK- BIRD REYKJAVIK CTA SEV TURB FCST WI N6540 W03730 - N6350 W03940 - N6400 W04250 - N6620 W04110 - N6540 W03730 FL250/400 STNR WKN
BIRD SIGMET B01 VALID 201330/201600 BIRK- BIRD REYKJAVIK CTA SEV TURB FCST WI N6650 W02200 - N6520 W02220 - N6520 W02600 - N6650 W02600 - N6650 W02200 SFC/FL090 STNR INTSF
BIRD SIGMET A02 VALID 201100/201400 BIRK- BIRD REYKJAVIK CTA SEV TURB FCST WI N6330 W03940 - N6330 W04300 - N6550 W04110 - N6540 W03750 - N6330 W03940 FL250/400 STNR NC

METAR síðustu 3 klst

Flugv.TímiSkeyti
BIAR2019-03-20 14.00METAR BIAR 201400Z 21014KT 180V250 9999 -SN BKN032 01/M09 Q0993
BIAR2019-03-20 13.36SPECI BIAR 201336Z 20017G28KT 170V230 9999 -SN BKN34 M00/M07 Q0993
BIAR2019-03-20 13.29SPECI BIAR 201329Z 21014G28KT 170V270 9999 4000N -SN BKN022 M00/M06 Q0993
BIAR2019-03-20 13.13SPECI BIAR 201313Z 26010KT 230V300 4000 -SN BKN022 01/M08 Q0993
BIAR2019-03-20 13.00METAR BIAR 201300Z 20014KT 170V260 9999 -SN BKN038 01/M11 Q0993
BIAR2019-03-20 12.00METAR BIAR 201200Z 22014G26KT 160V250 9999 SCT045 01/M11 Q0993
BIBD2019-03-20 13.00METAR BIBD 201300Z 21026G36KT 9999 VCSH BKN022 M04/M07 Q0989 RESHSN
BIBD2019-03-20 12.00METAR BIBD 201200Z 21025G37KT 9999 VCSH BKN027 M03/M08 Q0988
BIEG2019-03-20 14.00METAR BIEG 201400Z 21016KT CAVOK 04/M05 Q0995
BIEG2019-03-20 13.00METAR BIEG 201300Z 20020KT CAVOK 03/M08 Q0995
BIEG2019-03-20 12.00METAR BIEG 201200Z 20015KT CAVOK 03/M08 Q0996
BIGR2019-03-20 14.00METAR BIGR 201400Z 23033KT 9999 FEW015 SCT036 01/M07 Q0990
BIGR2019-03-20 13.00METAR BIGR 201300Z 23025G36KT 9999 -SHSN SCT015 M02/M03 Q0990
BIGR2019-03-20 12.00METAR BIGR 201200Z 23026G38KT 9999 FEW047 01/M06 Q0990
BIHN2019-03-20 14.00METAR BIHN 201400Z 16005KT 9999 -SHSN SCT007 OVC012 01/M01 Q0997
BIHN2019-03-20 13.00METAR BIHN 201300Z 19011KT 3000 SHSN OVC006 01/M00 Q0998
BIHN2019-03-20 12.00METAR BIHN 201200Z 21014KT 9999 FEW008 SCT014 BKN022 01/M00 Q0998 RESHSN
BIHU2019-03-20 14.00METAR BIHU 201400Z 22006G20KT 9999 FEW025 SCT040 01/M06 Q0992
BIHU2019-03-20 13.00METAR BIHU 201300Z 19014G29KT 9999 FEW045 02/M09 Q0992
BIHU2019-03-20 12.00METAR BIHU 201200Z 19017KT 9999 FEW030 01/M07 Q0992
BIIS2019-03-20 14.00METAR BIIS 201400Z 23025G43KT 3000 SHSN BKN022 M05/M07 Q0988
BIIS2019-03-20 12.50METAR BIIS 201250Z 23022G33KT 8000 SHSN BKN005 M03/M07 Q0987
BIIS2019-03-20 12.00METAR BIIS 201200Z 03020G33KT 0500 SHSN VV008 M04/M06 Q0987
BIKF2019-03-20 14.00METAR BIKF 201400Z 26026G36KT 9999 VCSH FEW016CB BKN036 M02/M04 Q0996
BIKF2019-03-20 13.30METAR BIKF 201330Z 25027KT 9999 VCSH FEW026CB BKN042 M01/M05 Q0995
BIKF2019-03-20 13.00METAR BIKF 201300Z 25028G39KT 9999 VCSH FEW017CB BKN032 M01/M07 Q0995 RESHSN
BIKF2019-03-20 12.30METAR BIKF 201230Z 25027G37KT 9999 VCSH FEW020CB BKN031 M01/M05 Q0994
BIKF2019-03-20 12.00METAR BIKF 201200Z 24025KT 9999 VCSH FEW020CB BKN043 00/M05 Q0994
BIKF2019-03-20 11.30METAR BIKF 201130Z 25025KT 9999 VCSH FEW026CB BKN045 M00/M04 Q0995
BIRK2019-03-20 14.00METAR BIRK 201400Z 25021KT 6000 -SHSN SCT019CB BKN034 BKN052 M01/M05 Q0996
BIRK2019-03-20 13.24SPECI BIRK 201324Z 25021G34KT 9999 VCSH FEW017 SCT021 BKN047 M01/M04 Q0996
BIRK2019-03-20 13.00METAR BIRK 201300Z 24026KT 2500 SHSN FEW014CB BKN024 OVC038 M01/M04 Q0996
BIRK2019-03-20 12.34SPECI BIRK 201234Z 24027G50KT 2500 R19/1100V1500N SHSN FEW015 BKN024 OVC052 M01/M05 Q0996
BIRK2019-03-20 12.00METAR BIRK 201200Z 25024KT 9999 -SHSN FEW017CB SCT030 BKN043 00/M06 Q0995 RESHSN
BITN2019-03-20 12.00METAR BITN 201200Z 21023KT CAVOK 01/M06 Q0993
BIVM2019-03-20 14.00METAR BIVM 201400Z 27020G30KT 9999 SHRASN SCT010 BKN025 01/M02 Q0997
BIVM2019-03-20 13.00METAR BIVM 201300Z 27023G33KT 9999 SHRASN SCT010 BKN025 00/M01 Q0997
BIVM2019-03-20 12.00METAR BIVM 201200Z 28020KT 9999 VCSH SCT010 BKN025 00/00 Q0996
BIVO2019-03-20 12.00METAR BIVO 201200Z 21012G25KT CAVOK 03/M08 Q0995

Textaspár eru skrifaðar af vakthafandi veðurfræðingi á Veðurstofu Íslands.




Aðrir tengdir vefir



Þetta vefsvæði byggir á Eplica